createdAt,value
2018-05-14T00:00:36.013Z,90.83
2018-05-14T00:03:03.486Z,94.67
2018-05-14T00:05:30.948Z,101.53
2018-05-14T00:07:59.178Z,75.40
2018-05-14T00:10:26.648Z,85.30
2018-05-14T00:12:54.113Z,77.90
2018-05-14T00:15:21.669Z,86.73
2018-05-14T00:17:49.144Z,75.50
2018-05-14T00:20:17.404Z,92.13
2018-05-14T00:22:44.872Z,91.80
2018-05-14T00:25:12.345Z,95.83
2018-05-14T00:27:40.600Z,82.33
2018-05-14T00:30:08.052Z,97.40
2018-05-14T00:32:35.520Z,95.50
2018-05-14T00:35:03.407Z,103.63
2018-05-14T00:37:31.632Z,110.33
2018-05-14T00:39:59.097Z,93.57
2018-05-14T00:42:26.581Z,97.33
2018-05-14T00:44:54.828Z,110.53
2018-05-14T00:47:22.338Z,116.27
2018-05-14T00:49:50.560Z,110.37
2018-05-14T00:52:18.025Z,114.53
2018-05-14T00:54:57.377Z,101.13
2018-05-14T00:57:24.832Z,114.90
2018-05-14T00:59:52.301Z,103.10
2018-05-14T01:02:20.543Z,110.60
2018-05-14T01:04:48.008Z,103.77
2018-05-14T01:07:15.463Z,101.33
2018-05-14T01:09:42.945Z,101.67
2018-05-14T01:12:11.176Z,98.83
2018-05-14T01:14:38.653Z,104.17
2018-05-14T01:17:06.137Z,101.13
2018-05-14T01:19:34.356Z,96.13
2018-05-14T01:22:01.823Z,103.60
2018-05-14T01:24:30.052Z,92.17
2018-05-14T01:26:58.293Z,92.30
2018-05-14T01:29:25.760Z,100.17
2018-05-14T01:31:53.215Z,97.63
2018-05-14T01:34:20.725Z,100.47
2018-05-14T01:36:48.185Z,91.97
2018-05-14T01:39:15.672Z,100.53
2018-05-14T01:41:44.649Z,101.27
2018-05-14T01:44:12.116Z,93.33
2018-05-14T01:46:39.576Z,94.20
2018-05-14T01:49:07.051Z,85.30
2018-05-14T01:51:34.504Z,92.90
2018-05-14T01:54:01.968Z,100.33
2018-05-14T01:56:30.196Z,81.30
2018-05-14T01:58:57.651Z,81.77
2018-05-14T02:01:25.144Z,84.30
2018-05-14T02:03:52.600Z,86.63
2018-05-14T02:06:20.069Z,84.80
2018-05-14T02:08:47.516Z,76.07
2018-05-14T02:11:14.980Z,81.13
2018-05-14T02:13:42.466Z,83.23
2018-05-14T02:16:10.679Z,82.97
2018-05-14T02:18:38.164Z,69.83
2018-05-14T02:21:05.606Z,85.90
2018-05-14T02:23:33.071Z,79.57
2018-05-14T02:26:00.540Z,86.43
2018-05-14T02:28:27.994Z,67.70
2018-05-14T02:30:55.467Z,72.73
2018-05-14T02:33:23.697Z,89.90
2018-05-14T02:35:51.158Z,72.10
2018-05-14T02:38:18.629Z,83.00
2018-05-14T02:40:46.102Z,81.67
2018-05-14T02:43:14.350Z,80.17
2018-05-14T02:45:42.748Z,77.70
2018-05-14T02:48:10.208Z,89.40
2018-05-14T02:50:37.672Z,90.40
2018-05-14T02:53:05.892Z,80.90
2018-05-14T02:55:33.364Z,80.33
2018-05-14T02:58:00.832Z,90.87
2018-05-14T03:00:28.300Z,96.37
2018-05-14T03:02:55.764Z,102.33
2018-05-14T03:05:23.240Z,95.33
2018-05-14T03:07:51.484Z,100.93
2018-05-14T03:10:18.973Z,93.17
2018-05-14T03:12:46.407Z,110.67
2018-05-14T03:15:13.885Z,103.87
2018-05-14T03:17:42.154Z,98.57
2018-05-14T03:20:09.618Z,105.17
2018-05-14T03:22:37.868Z,106.43
2018-05-14T03:25:05.336Z,140.93
2018-05-14T03:27:32.796Z,138.27
2018-05-14T03:30:01.037Z,124.53
2018-05-14T03:32:28.508Z,121.03
2018-05-14T03:34:55.992Z,175.40
2018-05-14T03:37:24.227Z,154.93
2018-05-14T03:39:51.687Z,138.33
2018-05-14T03:42:19.166Z,130.87
2018-05-14T03:44:46.634Z,143.73
2018-05-14T03:47:14.870Z,141.27
2018-05-14T03:49:42.340Z,206.07
2018-05-14T03:52:09.805Z,176.17
2018-05-14T03:54:37.271Z,212.53
2018-05-14T03:57:06.336Z,210.13
2018-05-14T03:59:45.864Z,171.97
2018-05-14T04:02:25.254Z,155.50
2018-05-14T04:05:05.611Z,182.63
2018-05-14T04:07:33.842Z,190.00
2018-05-14T04:10:01.344Z,229.90
2018-05-14T04:12:28.773Z,161.33
2018-05-14T04:14:56.265Z,192.07
2018-05-14T04:17:24.518Z,174.87
2018-05-14T04:19:51.974Z,234.27
2018-05-14T04:22:19.432Z,245.57
2018-05-14T04:24:47.675Z,198.20
2018-05-14T04:27:15.148Z,232.13
2018-05-14T04:29:42.675Z,213.67
2018-05-14T04:32:10.169Z,204.33
2018-05-14T04:34:37.730Z,135.07
2018-05-14T04:37:05.285Z,165.70
2018-05-14T04:39:32.749Z,185.97
2018-05-14T04:42:00.211Z,140.43
2018-05-14T04:44:27.685Z,171.03
2018-05-14T04:46:55.937Z,170.67
2018-05-14T04:49:23.416Z,141.80
2018-05-14T04:51:51.649Z,166.10
2018-05-14T04:54:19.108Z,166.03
2018-05-14T04:56:46.601Z,140.57
2018-05-14T04:59:14.913Z,133.40
2018-05-14T05:01:42.301Z,208.70
2018-05-14T05:04:09.792Z,133.37
2018-05-14T05:06:38.013Z,125.30
2018-05-14T05:09:05.470Z,134.20
2018-05-14T05:11:33.017Z,135.57
2018-05-14T05:14:00.417Z,135.83
2018-05-14T05:16:27.903Z,126.43
2018-05-14T05:18:56.141Z,132.53
2018-05-14T05:21:23.619Z,121.67
2018-05-14T05:23:51.846Z,119.70
2018-05-14T05:26:19.329Z,120.27
2018-05-14T05:28:46.806Z,140.30
2018-05-14T05:31:14.268Z,125.67
2018-05-14T05:33:42.527Z,132.40
2018-05-14T05:36:09.985Z,123.27
2018-05-14T05:38:37.442Z,121.93
2018-05-14T05:41:04.904Z,119.60
2018-05-14T05:43:32.377Z,134.63
2018-05-14T05:46:00.595Z,134.50
2018-05-14T05:48:28.073Z,126.63
2018-05-14T05:50:55.549Z,146.50
2018-05-14T05:53:23.025Z,163.07
2018-05-14T05:55:51.441Z,145.43
2018-05-14T05:58:18.948Z,131.40
2018-05-14T06:00:46.422Z,135.50
2018-05-14T06:03:14.645Z,147.63
2018-05-14T06:05:42.103Z,140.87
2018-05-14T06:08:09.611Z,140.30
2018-05-14T06:10:37.115Z,152.20
2018-05-14T06:13:04.599Z,150.10
2018-05-14T06:15:32.165Z,115.50
2018-05-14T06:18:00.441Z,133.77
2018-05-14T06:20:28.689Z,134.37
2018-05-14T06:22:56.149Z,123.83
2018-05-14T06:25:23.620Z,120.37
2018-05-14T06:27:51.289Z,113.57
2018-05-14T06:30:18.705Z,119.60
2018-05-14T06:32:46.268Z,109.70
2018-05-14T06:35:14.888Z,119.80
2018-05-14T06:37:42.401Z,124.00
2018-05-14T06:40:09.877Z,135.20
2018-05-14T06:42:37.781Z,106.47
2018-05-14T06:45:05.244Z,118.80
2018-05-14T06:47:34.504Z,106.00
2018-05-14T06:50:02.706Z,107.93
2018-05-14T06:52:30.238Z,102.80
2018-05-14T06:54:58.420Z,102.97
2018-05-14T06:57:25.885Z,110.60
2018-05-14T06:59:54.160Z,101.40
2018-05-14T07:02:22.092Z,95.70
2018-05-14T07:04:51.304Z,100.30
2018-05-14T07:07:18.938Z,100.60
2018-05-14T07:09:46.633Z,99.73
2018-05-14T07:12:14.697Z,99.17
2018-05-14T07:14:43.050Z,106.53
2018-05-14T07:17:10.521Z,93.13
2018-05-14T07:19:37.980Z,93.70
2018-05-14T07:22:05.436Z,87.60
2018-05-14T07:24:33.084Z,85.60
2018-05-14T07:27:01.317Z,83.53
2018-05-14T07:29:29.543Z,90.37
2018-05-14T07:31:57.011Z,88.63
2018-05-14T07:34:24.461Z,103.77
2018-05-14T07:36:51.924Z,90.13
2018-05-14T07:39:19.388Z,83.37
2018-05-14T07:41:47.883Z,76.80
2018-05-14T07:44:15.340Z,63.20
2018-05-14T07:46:42.907Z,57.23
2018-05-14T07:49:10.393Z,58.83
2018-05-14T07:51:37.852Z,60.20
2018-05-14T07:54:05.348Z,59.50
2018-05-14T07:56:32.807Z,58.70
2018-05-14T07:59:00.458Z,52.67
2018-05-14T08:01:27.916Z,59.33
2018-05-14T08:03:55.380Z,52.80
2018-05-14T08:06:22.848Z,57.97
2018-05-14T08:08:51.028Z,50.80
2018-05-14T08:11:18.508Z,51.17
2018-05-14T08:13:47.453Z,51.03
2018-05-14T08:16:14.969Z,51.80
2018-05-14T08:18:43.241Z,56.00
2018-05-14T08:21:10.724Z,53.23
2018-05-14T08:23:38.231Z,53.33
2018-05-14T08:26:05.745Z,52.13
2018-05-14T08:28:33.238Z,52.57
2018-05-14T08:31:00.707Z,54.60
2018-05-14T08:33:28.155Z,49.60
2018-05-14T08:35:55.625Z,54.40
2018-05-14T08:38:23.166Z,56.57
2018-05-14T08:40:50.703Z,50.70
2018-05-14T08:43:18.201Z,55.60
2018-05-14T08:45:45.696Z,53.17
2018-05-14T08:48:13.156Z,46.37
2018-05-14T08:50:40.617Z,55.00
2018-05-14T08:53:08.117Z,55.03
2018-05-14T08:55:35.572Z,57.93
2018-05-14T08:58:03.976Z,51.63
2018-05-14T09:00:32.252Z,54.80
2018-05-14T09:03:00.561Z,51.67
2018-05-14T09:05:28.016Z,52.73
2018-05-14T09:07:55.471Z,56.27
2018-05-14T09:10:23.120Z,45.23
2018-05-14T09:12:50.580Z,50.73
2018-05-14T09:15:18.032Z,49.10
2018-05-14T09:17:45.497Z,46.57
2018-05-14T09:20:13.097Z,53.63
2018-05-14T09:22:40.556Z,41.27
2018-05-14T09:25:08.027Z,52.87
2018-05-14T09:27:35.492Z,45.23
2018-05-14T09:30:04.835Z,49.80
2018-05-14T09:32:32.340Z,41.23
2018-05-14T09:34:59.860Z,42.60
2018-05-14T09:37:27.324Z,43.30
2018-05-14T09:39:54.792Z,39.33
2018-05-14T09:42:22.320Z,33.57
2018-05-14T09:44:49.779Z,42.43
2018-05-14T09:47:17.236Z,40.93
2018-05-14T09:49:44.716Z,38.93
2018-05-14T09:52:12.180Z,35.73
2018-05-14T09:54:39.636Z,37.40
2018-05-14T09:57:07.104Z,42.03
2018-05-14T09:59:35.366Z,35.93
2018-05-14T10:02:02.897Z,30.50
2018-05-14T10:04:30.397Z,37.47
2018-05-14T10:06:57.874Z,32.87
2018-05-14T10:09:26.097Z,31.07
2018-05-14T10:11:53.679Z,34.27
2018-05-14T10:14:21.140Z,27.63
2018-05-14T10:16:48.604Z,28.93
2018-05-14T10:19:16.056Z,30.20
2018-05-14T10:21:45.036Z,30.40
2018-05-14T10:24:12.488Z,25.77
2018-05-14T10:26:39.963Z,27.20
2018-05-14T10:29:07.522Z,30.30
2018-05-14T10:31:35.832Z,26.93
2018-05-14T10:34:03.313Z,24.20
2018-05-14T10:36:30.771Z,29.73
2018-05-14T10:38:58.221Z,19.67
2018-05-14T10:41:25.688Z,17.33
2018-05-14T10:43:53.156Z,23.00
2018-05-14T10:46:20.624Z,21.37
2018-05-14T10:48:48.093Z,15.90
2018-05-14T10:51:15.567Z,17.20
2018-05-14T10:53:43.077Z,16.97
2018-05-14T10:56:10.541Z,20.40
2018-05-14T10:58:38.011Z,14.30
2018-05-14T11:01:05.464Z,13.30
2018-05-14T11:03:32.933Z,15.60
2018-05-14T11:06:00.393Z,10.07
2018-05-14T11:08:27.888Z,16.40
2018-05-14T11:10:55.357Z,14.13
2018-05-14T11:13:22.810Z,13.57
2018-05-14T11:15:50.268Z,14.80
2018-05-14T11:18:17.738Z,12.90
2018-05-14T11:20:45.220Z,13.20
2018-05-14T11:23:12.688Z,18.43
2018-05-14T11:25:40.161Z,15.80
2018-05-14T11:28:07.645Z,14.30
2018-05-14T11:30:35.865Z,11.90
2018-05-14T11:33:03.329Z,11.70
2018-05-14T11:35:30.919Z,11.60
2018-05-14T11:37:58.256Z,14.97
2018-05-14T11:40:25.704Z,11.73
2018-05-14T11:42:53.167Z,10.07
2018-05-14T11:45:20.620Z,9.73
2018-05-14T11:47:48.077Z,14.30
2018-05-14T11:50:15.533Z,11.07
2018-05-14T11:52:43.005Z,19.13
2018-05-14T11:55:11.229Z,13.57
2018-05-14T11:57:38.690Z,19.07
2018-05-14T12:00:06.165Z,22.70
2018-05-14T12:02:33.632Z,16.30
2018-05-14T12:05:01.097Z,17.87
2018-05-14T12:07:28.563Z,20.27
2018-05-14T12:09:56.025Z,17.47
2018-05-14T12:12:24.264Z,20.23
2018-05-14T12:14:51.720Z,17.53
2018-05-14T12:17:19.181Z,26.80
2018-05-14T12:19:46.652Z,20.60
2018-05-14T12:22:14.109Z,21.33
2018-05-14T12:24:41.578Z,19.90
2018-05-14T12:27:09.036Z,20.13
2018-05-14T12:29:36.496Z,20.17
2018-05-14T12:32:04.807Z,24.63
2018-05-14T12:34:32.212Z,24.93
2018-05-14T12:36:59.681Z,27.70
2018-05-14T12:39:27.928Z,23.93
2018-05-14T12:41:55.384Z,24.30
2018-05-14T12:44:22.844Z,21.00
2018-05-14T12:46:50.305Z,20.10
2018-05-14T12:49:17.782Z,23.60
2018-05-14T12:51:45.249Z,22.63
2018-05-14T12:54:13.477Z,26.53
2018-05-14T12:56:40.929Z,21.87
2018-05-14T12:59:08.397Z,21.27
2018-05-14T13:01:35.868Z,22.93
2018-05-14T13:04:03.348Z,22.87
2018-05-14T13:06:30.792Z,24.27
2018-05-14T13:08:58.260Z,27.80
2018-05-14T13:11:26.506Z,21.00
2018-05-14T13:13:53.969Z,26.60
2018-05-14T13:16:21.441Z,25.27
2018-05-14T13:18:48.896Z,33.57
2018-05-14T13:21:16.369Z,23.80
2018-05-14T13:23:44.605Z,23.03
2018-05-14T13:26:12.120Z,23.93
2018-05-14T13:28:39.553Z,23.63
2018-05-14T13:31:07.820Z,22.80
2018-05-14T13:33:35.284Z,22.97
2018-05-14T13:36:03.537Z,21.80
2018-05-14T13:38:31.020Z,25.53
2018-05-14T13:40:59.252Z,19.20
2018-05-14T13:43:28.060Z,22.53
2018-05-14T13:45:55.591Z,19.73
2018-05-14T13:48:23.072Z,26.40
2018-05-14T13:50:50.575Z,21.10
2018-05-14T13:53:18.031Z,18.90
2018-05-14T13:55:45.493Z,20.63
2018-05-14T13:58:12.944Z,20.27
2018-05-14T14:00:40.455Z,18.50
2018-05-14T14:03:07.916Z,20.83
2018-05-14T14:05:35.377Z,18.03
2018-05-14T14:08:02.849Z,21.17
2018-05-14T14:10:31.108Z,18.73
2018-05-14T14:12:58.575Z,15.90
2018-05-14T14:15:26.026Z,18.20
2018-05-14T14:17:53.486Z,18.43
2018-05-14T14:20:20.949Z,13.70
2018-05-14T14:22:48.497Z,20.40
2018-05-14T14:25:16.048Z,14.90
2018-05-14T14:27:43.612Z,11.87
2018-05-14T14:30:11.088Z,13.53
2018-05-14T14:32:39.334Z,14.30
2018-05-14T14:35:06.818Z,13.80
2018-05-14T14:37:35.041Z,12.30
2018-05-14T14:40:02.512Z,12.03
2018-05-14T14:42:29.980Z,12.83
2018-05-14T14:44:57.445Z,14.73
2018-05-14T14:47:24.909Z,10.13
2018-05-14T14:49:52.368Z,11.93
2018-05-14T14:52:19.841Z,10.37
2018-05-14T14:54:48.057Z,15.07
2018-05-14T14:57:15.509Z,11.10
2018-05-14T14:59:42.996Z,9.97
2018-05-14T15:02:10.464Z,9.17
2018-05-14T15:04:37.916Z,9.70
2018-05-14T15:07:05.414Z,7.43
2018-05-14T15:09:33.604Z,10.43
2018-05-14T15:12:01.071Z,11.23
2018-05-14T15:14:28.544Z,8.23
2018-05-14T15:16:56.007Z,13.37
2018-05-14T15:19:23.470Z,6.83
2018-05-14T15:21:50.933Z,7.27
2018-05-14T15:24:18.405Z,7.60
2018-05-14T15:26:46.668Z,10.33
2018-05-14T15:29:14.150Z,11.07
2018-05-14T15:31:42.374Z,6.57
2018-05-14T15:34:09.883Z,6.20
2018-05-14T15:36:38.092Z,7.23
2018-05-14T15:39:05.567Z,10.27
2018-05-14T15:41:33.032Z,5.10
2018-05-14T15:44:00.509Z,9.00
2018-05-14T15:46:28.736Z,5.70
2018-05-14T15:48:56.183Z,5.90
2018-05-14T15:51:23.663Z,7.10
2018-05-14T15:53:51.117Z,6.10
2018-05-14T15:56:18.643Z,6.53
2018-05-14T15:58:46.066Z,7.40
2018-05-14T16:01:13.507Z,6.27
2018-05-14T16:03:40.961Z,6.67
2018-05-14T16:06:08.454Z,7.00
2018-05-14T16:08:36.696Z,7.87
2018-05-14T16:11:04.149Z,5.60
2018-05-14T16:13:31.624Z,6.80
2018-05-14T16:15:59.072Z,6.10
2018-05-14T16:18:26.548Z,4.53
2018-05-14T16:20:54.764Z,5.43
2018-05-14T16:23:22.239Z,6.20
2018-05-14T16:25:49.710Z,5.30
2018-05-14T16:28:17.164Z,7.40
2018-05-14T16:30:44.641Z,8.63
2018-05-14T16:33:12.093Z,4.97
2018-05-14T16:35:39.545Z,4.73
2018-05-14T16:38:07.010Z,5.90
2018-05-14T16:40:35.248Z,5.80
2018-05-14T16:43:02.699Z,4.97
2018-05-14T16:45:30.213Z,13.97
2018-05-14T16:47:58.445Z,5.97
2018-05-14T16:50:25.956Z,8.43
2018-05-14T16:52:53.369Z,5.50
2018-05-14T16:55:20.827Z,5.10
2018-05-14T16:57:49.904Z,4.40
2018-05-14T17:00:17.296Z,6.73
2018-05-14T17:02:45.524Z,5.40
2018-05-14T17:05:13.012Z,10.37
2018-05-14T17:07:40.479Z,4.20
2018-05-14T17:10:07.933Z,5.80
2018-05-14T17:12:35.397Z,6.30
2018-05-14T17:15:03.628Z,4.80
2018-05-14T17:17:31.097Z,5.00
2018-05-14T17:19:58.573Z,4.50
2018-05-14T17:22:26.123Z,6.37
2018-05-14T17:24:53.629Z,5.73
2018-05-14T17:27:21.137Z,14.47
2018-05-14T17:29:48.584Z,20.03
2018-05-14T17:32:16.046Z,18.00
2018-05-14T17:34:43.516Z,17.50
2018-05-14T17:37:10.981Z,17.40
2018-05-14T17:39:38.532Z,23.53
2018-05-14T17:42:05.996Z,16.57
2018-05-14T17:44:33.453Z,18.37
2018-05-14T17:47:00.976Z,16.10
2018-05-14T17:49:28.404Z,22.00
2018-05-14T17:51:55.872Z,18.50
2018-05-14T17:54:23.344Z,23.60
2018-05-14T17:56:50.803Z,23.40
2018-05-14T17:59:18.268Z,27.73
2018-05-14T18:01:45.721Z,29.30
2018-05-14T18:04:13.202Z,23.73
2018-05-14T18:06:40.657Z,22.93
2018-05-14T18:09:08.117Z,31.27
2018-05-14T18:11:35.594Z,16.90
2018-05-14T18:14:03.816Z,22.60
2018-05-14T18:16:31.280Z,21.93
2018-05-14T18:18:58.784Z,22.83
2018-05-14T18:21:32.628Z,17.80
2018-05-14T18:24:00.129Z,17.67
2018-05-14T18:26:34.097Z,22.33
2018-05-14T18:29:05.556Z,24.60
2018-05-14T18:31:33.026Z,24.57
2018-05-14T18:34:06.292Z,20.70
2018-05-14T18:36:33.751Z,23.77
2018-05-14T18:39:01.267Z,19.10
2018-05-14T18:41:28.720Z,27.40
2018-05-14T18:43:56.960Z,24.00
2018-05-14T18:46:24.538Z,23.47
2018-05-14T18:48:52.785Z,27.20
2018-05-14T18:51:20.261Z,28.63
2018-05-14T18:53:47.736Z,29.17
2018-05-14T18:56:16.729Z,20.80
2018-05-14T18:58:44.951Z,30.97
2018-05-14T19:01:12.454Z,27.63
2018-05-14T19:03:39.968Z,24.90
2018-05-14T19:06:07.511Z,26.80
2018-05-14T19:08:35.033Z,22.77
2018-05-14T19:11:08.223Z,31.60
2018-05-14T19:13:36.496Z,27.33
2018-05-14T19:16:23.336Z,24.50
2018-05-14T19:18:51.560Z,28.73
2018-05-14T19:21:19.033Z,25.00
2018-05-14T19:23:52.354Z,31.00
2018-05-14T19:26:19.784Z,29.70
2018-05-14T19:28:52.895Z,33.97
2018-05-14T19:31:21.120Z,24.40
2018-05-14T19:33:54.367Z,25.77
2018-05-14T19:36:22.594Z,25.10
2018-05-14T19:38:50.062Z,29.80
2018-05-14T19:41:17.539Z,27.17
2018-05-14T19:43:46.509Z,28.40
2018-05-14T19:46:13.985Z,36.80
2018-05-14T19:48:42.258Z,34.63
2018-05-14T19:51:11.225Z,25.70
2018-05-14T19:53:38.684Z,28.77
2018-05-14T19:56:06.267Z,32.57
2018-05-14T19:58:34.511Z,28.67
2018-05-14T20:01:01.999Z,32.67
2018-05-14T20:03:29.532Z,30.13
2018-05-14T20:05:57.729Z,30.60
2018-05-14T20:08:25.189Z,18.80
2018-05-14T20:10:52.669Z,22.73
2018-05-14T20:13:20.900Z,24.83
2018-05-14T20:15:48.396Z,24.73
2018-05-14T20:18:16.648Z,26.67
2018-05-14T20:20:44.144Z,23.20
2018-05-14T20:23:13.348Z,21.20
2018-05-14T20:25:40.816Z,15.87
2018-05-14T20:28:09.079Z,20.23
2018-05-14T20:30:36.556Z,20.10
2018-05-14T20:33:04.036Z,13.50
2018-05-14T20:35:31.550Z,14.77
2018-05-14T20:37:59.009Z,15.73
2018-05-14T20:40:26.476Z,16.93
2018-05-14T20:42:53.943Z,15.37
2018-05-14T20:45:21.489Z,16.90
2018-05-14T20:47:48.880Z,14.43
2018-05-14T20:50:16.454Z,12.20
2018-05-14T20:52:43.908Z,14.53
2018-05-14T20:55:11.381Z,12.93
2018-05-14T20:57:39.613Z,17.00
2018-05-14T21:00:07.076Z,11.77
2018-05-14T21:02:34.532Z,14.37
2018-05-14T21:05:01.996Z,13.07
2018-05-14T21:07:29.466Z,17.37
2018-05-14T21:09:56.948Z,15.73
2018-05-14T21:12:25.171Z,13.83
2018-05-14T21:14:52.754Z,14.13
2018-05-14T21:17:20.133Z,22.17
2018-05-14T21:19:48.361Z,14.80
2018-05-14T21:22:15.812Z,17.60
2018-05-14T21:24:43.285Z,15.83
2018-05-14T21:27:10.751Z,26.70
2018-05-14T21:29:38.209Z,22.47
2018-05-14T21:32:05.672Z,19.70
2018-05-14T21:34:33.232Z,17.63
2018-05-14T21:37:00.692Z,22.97
2018-05-14T21:39:29.122Z,17.27
2018-05-14T21:41:56.584Z,21.80
2018-05-14T21:44:24.041Z,20.10
2018-05-14T21:46:51.520Z,20.03
2018-05-14T21:49:18.987Z,27.57
2018-05-14T21:51:46.479Z,22.40
2018-05-14T21:54:14.700Z,21.07
2018-05-14T21:56:42.195Z,22.03
2018-05-14T21:59:10.449Z,22.50
2018-05-14T22:01:37.905Z,25.80
2018-05-14T22:04:05.378Z,20.27
2018-05-14T22:06:32.833Z,19.73
2018-05-14T22:09:00.297Z,22.30
2018-05-14T22:11:27.809Z,20.97
2018-05-14T22:13:55.256Z,19.57
2018-05-14T22:16:22.751Z,22.87
2018-05-14T22:18:50.217Z,22.57
2018-05-14T22:21:17.670Z,22.57
2018-05-14T22:23:45.135Z,21.93
2018-05-14T22:26:12.640Z,29.50
2018-05-14T22:28:40.086Z,22.60
2018-05-14T22:31:07.581Z,25.43
2018-05-14T22:33:35.052Z,27.13
2018-05-14T22:36:02.589Z,25.77
2018-05-14T22:38:30.066Z,23.17
2018-05-14T22:40:57.530Z,22.10
2018-05-14T22:43:24.992Z,23.83
2018-05-14T22:45:52.456Z,22.33
2018-05-14T22:48:20.683Z,26.67
2018-05-14T22:50:48.949Z,22.67
2018-05-14T22:53:16.416Z,30.93
2018-05-14T22:55:43.896Z,21.07
2018-05-14T22:58:11.348Z,24.47
2018-05-14T23:00:38.821Z,28.30
2018-05-14T23:03:06.270Z,25.17
2018-05-14T23:05:33.833Z,35.80
2018-05-14T23:08:01.301Z,27.33
2018-05-14T23:10:28.770Z,22.87
2018-05-14T23:12:56.996Z,30.53
2018-05-14T23:15:24.473Z,26.77
2018-05-14T23:17:51.944Z,21.63
2018-05-14T23:20:19.397Z,27.70
2018-05-14T23:22:46.889Z,32.23
2018-05-14T23:25:14.351Z,27.67
2018-05-14T23:27:41.820Z,24.60
2018-05-14T23:30:10.094Z,28.27
2018-05-14T23:32:37.541Z,30.37
2018-05-14T23:35:05.111Z,39.40
2018-05-14T23:37:32.569Z,28.03
2018-05-14T23:40:00.024Z,26.20
2018-05-14T23:42:27.510Z,32.70
2018-05-14T23:44:54.973Z,25.27
2018-05-14T23:47:22.559Z,31.40
2018-05-14T23:49:50.788Z,25.90
2018-05-14T23:52:18.267Z,31.70
2018-05-14T23:54:45.737Z,33.50
2018-05-14T23:57:13.194Z,29.13
2018-05-14T23:59:40.663Z,26.27
